Aviation Digital Data Service (ADDS)

Output produced by METARs form (1236 UTC 30 March 2017)
found at http://aviationweather.gov/adds/metars/
 
KRUT 301122Z 3012/3112 32004KT P6SM BKN040 
     FM301400 02008KT P6SM FEW200 
     FM302300 08007KT P6SM BKN070 
     FM310900 14007KT P6SM VCSH OVC025